sensor_id;sensor_type;location;lat;lon;timestamp;pressure;altitude;pressure_sealevel;temperature;humidity
80777;BME280;70169;51.262;6.336;2023-11-18T00:00:42;101907.25;;;4.78;97.52
80777;BME280;70169;51.262;6.336;2023-11-18T00:02:59;101908.09;;;4.79;97.36
80777;BME280;70169;51.262;6.336;2023-11-18T00:05:14;101916.78;;;4.79;97.27
80777;BME280;70169;51.262;6.336;2023-11-18T00:07:30;101907.13;;;4.80;97.38
80777;BME280;70169;51.262;6.336;2023-11-18T00:09:47;101911.41;;;4.81;97.24
80777;BME280;70169;51.262;6.336;2023-11-18T00:12:03;101905.34;;;4.80;97.42
80777;BME280;70169;51.262;6.336;2023-11-18T00:14:19;101898.31;;;4.81;97.34
80777;BME280;70169;51.262;6.336;2023-11-18T00:16:36;101903.56;;;4.81;97.35
80777;BME280;70169;51.262;6.336;2023-11-18T00:18:52;101901.88;;;4.80;97.38
80777;BME280;70169;51.262;6.336;2023-11-18T00:21:09;101904.78;;;4.77;97.53
80777;BME280;70169;51.262;6.336;2023-11-18T00:23:24;101905.75;;;4.75;97.46
80777;BME280;70169;51.262;6.336;2023-11-18T00:25:41;101905.88;;;4.74;97.63
80777;BME280;70169;51.262;6.336;2023-11-18T00:27:57;101902.56;;;4.72;97.23
80777;BME280;70169;51.262;6.336;2023-11-18T00:30:12;101896.75;;;4.68;97.49
80777;BME280;70169;51.262;6.336;2023-11-18T00:32:28;101892.47;;;4.67;97.48
80777;BME280;70169;51.262;6.336;2023-11-18T00:34:43;101888.31;;;4.65;97.70
80777;BME280;70169;51.262;6.336;2023-11-18T00:36:59;101893.81;;;4.62;97.13
80777;BME280;70169;51.262;6.336;2023-11-18T00:39:15;101885.28;;;4.60;97.36
80777;BME280;70169;51.262;6.336;2023-11-18T00:41:30;101897.81;;;4.56;97.52
80777;BME280;70169;51.262;6.336;2023-11-18T00:43:46;101887.59;;;4.53;97.61
80777;BME280;70169;51.262;6.336;2023-11-18T00:46:01;101879.19;;;4.49;97.34
80777;BME280;70169;51.262;6.336;2023-11-18T00:48:18;101887.16;;;4.48;97.10
80777;BME280;70169;51.262;6.336;2023-11-18T00:50:34;101883.13;;;4.44;96.96
80777;BME280;70169;51.262;6.336;2023-11-18T00:52:49;101883.41;;;4.41;97.06
80777;BME280;70169;51.262;6.336;2023-11-18T00:55:06;101888.06;;;4.37;97.09
80777;BME280;70169;51.262;6.336;2023-11-18T00:57:22;101881.56;;;4.31;97.18
80777;BME280;70169;51.262;6.336;2023-11-18T00:59:41;101872.19;;;4.29;97.20
80777;BME280;70169;51.262;6.336;2023-11-18T01:01:57;101878.50;;;4.26;97.08
80777;BME280;70169;51.262;6.336;2023-11-18T01:04:12;101873.53;;;4.23;97.59
80777;BME280;70169;51.262;6.336;2023-11-18T01:06:28;101877.13;;;4.22;97.11
80777;BME280;70169;51.262;6.336;2023-11-18T01:08:44;101873.78;;;4.20;97.28
80777;BME280;70169;51.262;6.336;2023-11-18T01:11:00;101879.13;;;4.18;97.94
80777;BME280;70169;51.262;6.336;2023-11-18T01:13:15;101884.50;;;4.17;97.28
80777;BME280;70169;51.262;6.336;2023-11-18T01:15:30;101883.81;;;4.15;97.73
80777;BME280;70169;51.262;6.336;2023-11-18T01:17:46;101890.16;;;4.12;97.59
80777;BME280;70169;51.262;6.336;2023-11-18T01:20:02;101900.75;;;4.11;97.39
80777;BME280;70169;51.262;6.336;2023-11-18T01:22:24;101892.28;;;4.07;98.00
80777;BME280;70169;51.262;6.336;2023-11-18T01:24:40;101902.06;;;4.05;97.73
80777;BME280;70169;51.262;6.336;2023-11-18T01:26:56;101904.13;;;4.01;97.75
80777;BME280;70169;51.262;6.336;2023-11-18T01:29:11;101905.19;;;3.99;97.82
80777;BME280;70169;51.262;6.336;2023-11-18T01:31:27;101914.13;;;3.96;97.26
80777;BME280;70169;51.262;6.336;2023-11-18T01:33:42;101912.59;;;3.94;97.42
80777;BME280;70169;51.262;6.336;2023-11-18T01:36:00;101910.91;;;3.93;97.97
80777;BME280;70169;51.262;6.336;2023-11-18T01:38:15;101909.41;;;3.90;98.18
80777;BME280;70169;51.262;6.336;2023-11-18T01:40:30;101915.56;;;3.89;98.14
80777;BME280;70169;51.262;6.336;2023-11-18T01:42:47;101909.66;;;3.87;98.29
80777;BME280;70169;51.262;6.336;2023-11-18T01:45:02;101915.00;;;3.86;97.49
80777;BME280;70169;51.262;6.336;2023-11-18T01:47:18;101902.88;;;3.84;97.72
80777;BME280;70169;51.262;6.336;2023-11-18T01:49:35;101914.31;;;3.83;97.83
80777;BME280;70169;51.262;6.336;2023-11-18T01:51:55;101914.44;;;3.82;97.75
80777;BME280;70169;51.262;6.336;2023-11-18T01:54:12;101915.25;;;3.82;98.31
80777;BME280;70169;51.262;6.336;2023-11-18T01:56:30;101915.25;;;3.82;98.53
80777;BME280;70169;51.262;6.336;2023-11-18T01:58:48;101916.06;;;3.83;97.68
80777;BME280;70169;51.262;6.336;2023-11-18T02:01:04;101911.69;;;3.83;98.43
80777;BME280;70169;51.262;6.336;2023-11-18T02:03:23;101916.81;;;3.85;98.46
80777;BME280;70169;51.262;6.336;2023-11-18T02:05:39;101904.53;;;3.86;98.51
80777;BME280;70169;51.262;6.336;2023-11-18T02:07:54;101907.84;;;3.88;98.53
80777;BME280;70169;51.262;6.336;2023-11-18T02:10:10;101906.91;;;3.89;98.25
80777;BME280;70169;51.262;6.336;2023-11-18T02:12:46;101898.13;;;3.90;98.37
80777;BME280;70169;51.262;6.336;2023-11-18T02:15:06;101900.72;;;3.90;98.24
80777;BME280;70169;51.262;6.336;2023-11-18T02:17:28;101905.00;;;3.91;98.32
80777;BME280;70169;51.262;6.336;2023-11-18T02:19:45;101893.72;;;3.90;97.74
80777;BME280;70169;51.262;6.336;2023-11-18T02:22:01;101892.75;;;3.91;98.35
80777;BME280;70169;51.262;6.336;2023-11-18T02:24:30;101898.94;;;3.90;97.95
80777;BME280;70169;51.262;6.336;2023-11-18T02:26:48;101896.19;;;3.92;97.70
80777;BME280;70169;51.262;6.336;2023-11-18T02:29:03;101891.78;;;3.92;98.35
80777;BME280;70169;51.262;6.336;2023-11-18T02:31:33;101894.41;;;3.92;98.36
80777;BME280;70169;51.262;6.336;2023-11-18T02:33:58;101887.38;;;3.93;98.04
80777;BME280;70169;51.262;6.336;2023-11-18T02:36:35;101895.22;;;3.93;98.01
80777;BME280;70169;51.262;6.336;2023-11-18T02:38:53;101893.59;;;3.92;98.07
80777;BME280;70169;51.262;6.336;2023-11-18T02:41:12;101890.97;;;3.92;97.99
80777;BME280;70169;51.262;6.336;2023-11-18T02:43:28;101899.63;;;3.92;97.65
80777;BME280;70169;51.262;6.336;2023-11-18T02:45:46;101898.69;;;3.93;97.60
80777;BME280;70169;51.262;6.336;2023-11-18T02:48:04;101899.63;;;3.92;97.65
80777;BME280;70169;51.262;6.336;2023-11-18T02:50:21;101899.50;;;3.94;97.72
80777;BME280;70169;51.262;6.336;2023-11-18T02:52:37;101904.75;;;3.94;97.92
80777;BME280;70169;51.262;6.336;2023-11-18T02:54:53;101921.97;;;3.96;97.81
80777;BME280;70169;51.262;6.336;2023-11-18T02:57:08;101914.94;;;3.97;97.75
80777;BME280;70169;51.262;6.336;2023-11-18T02:59:23;101904.38;;;3.98;98.49
80777;BME280;70169;51.262;6.336;2023-11-18T03:01:39;101905.19;;;3.99;98.20
80777;BME280;70169;51.262;6.336;2023-11-18T03:03:54;101889.47;;;3.99;97.90
80777;BME280;70169;51.262;6.336;2023-11-18T03:06:11;101891.16;;;4.00;97.77
80777;BME280;70169;51.262;6.336;2023-11-18T03:08:26;101878.91;;;4.00;98.04
80777;BME280;70169;51.262;6.336;2023-11-18T03:10:44;101875.47;;;4.00;97.48
80777;BME280;70169;51.262;6.336;2023-11-18T03:12:59;101878.06;;;4.00;98.06
80777;BME280;70169;51.262;6.336;2023-11-18T03:15:15;101878.91;;;4.00;98.23
80777;BME280;70169;51.262;6.336;2023-11-18T03:17:33;101871.03;;;4.00;97.68
80777;BME280;70169;51.262;6.336;2023-11-18T03:19:49;101865.94;;;3.99;97.80
80777;BME280;70169;51.262;6.336;2023-11-18T03:22:05;101868.56;;;3.99;97.50
80777;BME280;70169;51.262;6.336;2023-11-18T03:24:21;101860.72;;;3.99;97.81
80777;BME280;70169;51.262;6.336;2023-11-18T03:26:36;101855.59;;;3.97;97.65
80777;BME280;70169;51.262;6.336;2023-11-18T03:28:51;101854.66;;;3.98;97.58
80777;BME280;70169;51.262;6.336;2023-11-18T03:31:07;101860.00;;;3.97;97.45
80777;BME280;70169;51.262;6.336;2023-11-18T03:33:23;101872.28;;;3.96;97.94
80777;BME280;70169;51.262;6.336;2023-11-18T03:35:38;101869.78;;;3.95;97.57
80777;BME280;70169;51.262;6.336;2023-11-18T03:37:54;101865.38;;;3.95;98.03
80777;BME280;70169;51.262;6.336;2023-11-18T03:40:11;101858.47;;;3.94;97.92
80777;BME280;70169;51.262;6.336;2023-11-18T03:42:27;101869.06;;;3.93;97.52
80777;BME280;70169;51.262;6.336;2023-11-18T03:44:44;101866.44;;;3.93;98.10
80777;BME280;70169;51.262;6.336;2023-11-18T03:47:02;101868.25;;;3.92;97.96
80777;BME280;70169;51.262;6.336;2023-11-18T03:49:18;101870.97;;;3.91;98.21
80777;BME280;70169;51.262;6.336;2023-11-18T03:51:35;101879.69;;;3.91;97.65
80777;BME280;70169;51.262;6.336;2023-11-18T03:53:50;101878.72;;;3.92;98.05
80777;BME280;70169;51.262;6.336;2023-11-18T03:56:06;101876.22;;;3.91;97.53
80777;BME280;70169;51.262;6.336;2023-11-18T03:58:21;101870.16;;;3.90;97.72
80777;BME280;70169;51.262;6.336;2023-11-18T04:00:37;101872.78;;;3.90;97.73
80777;BME280;70169;51.262;6.336;2023-11-18T04:02:52;101868.38;;;3.91;98.11
80777;BME280;70169;51.262;6.336;2023-11-18T04:05:08;101860.53;;;3.91;98.20
80777;BME280;70169;51.262;6.336;2023-11-18T04:07:25;101862.31;;;3.90;98.07
80777;BME280;70169;51.262;6.336;2023-11-18T04:09:40;101857.09;;;3.90;98.28
80777;BME280;70169;51.262;6.336;2023-11-18T04:11:59;101851.03;;;3.90;97.81
80777;BME280;70169;51.262;6.336;2023-11-18T04:14:14;101849.25;;;3.90;97.94
80777;BME280;70169;51.262;6.336;2023-11-18T04:16:30;101838.78;;;3.90;97.43
80777;BME280;70169;51.262;6.336;2023-11-18T04:18:46;101836.16;;;3.90;98.12
80777;BME280;70169;51.262;6.336;2023-11-18T04:21:01;101835.22;;;3.91;98.48
80777;BME280;70169;51.262;6.336;2023-11-18T04:23:17;101828.19;;;3.92;97.54
80777;BME280;70169;51.262;6.336;2023-11-18T04:25:33;101829.13;;;3.91;98.25
80777;BME280;70169;51.262;6.336;2023-11-18T04:27:48;101824.88;;;3.90;98.05
80777;BME280;70169;51.262;6.336;2023-11-18T04:30:04;101828.44;;;3.89;97.69
80777;BME280;70169;51.262;6.336;2023-11-18T04:32:20;101823.34;;;3.87;97.96
80777;BME280;70169;51.262;6.336;2023-11-18T04:34:36;101822.53;;;3.87;97.53
80777;BME280;70169;51.262;6.336;2023-11-18T04:36:51;101819.06;;;3.86;97.57
80777;BME280;70169;51.262;6.336;2023-11-18T04:39:07;101809.69;;;3.83;97.63
80777;BME280;70169;51.262;6.336;2023-11-18T04:41:23;101807.06;;;3.83;98.32
80777;BME280;70169;51.262;6.336;2023-11-18T04:43:38;101805.28;;;3.84;98.31
80777;BME280;70169;51.262;6.336;2023-11-18T04:45:57;101797.56;;;3.82;98.41
80777;BME280;70169;51.262;6.336;2023-11-18T04:48:12;101802.09;;;3.80;97.44
80777;BME280;70169;51.262;6.336;2023-11-18T04:50:30;101794.25;;;3.80;97.55
80777;BME280;70169;51.262;6.336;2023-11-18T04:52:47;101799.50;;;3.80;98.46
80777;BME280;70169;51.262;6.336;2023-11-18T04:55:03;101805.66;;;3.79;98.06
80777;BME280;70169;51.262;6.336;2023-11-18T04:57:20;101795.06;;;3.81;98.30
80777;BME280;70169;51.262;6.336;2023-11-18T04:59:36;101788.91;;;3.82;98.11
80777;BME280;70169;51.262;6.336;2023-11-18T05:01:51;101780.06;;;3.83;98.59
80777;BME280;70169;51.262;6.336;2023-11-18T05:04:08;101761.75;;;3.83;97.92
80777;BME280;70169;51.262;6.336;2023-11-18T05:06:24;101769.63;;;3.83;98.07
80777;BME280;70169;51.262;6.336;2023-11-18T05:08:41;101768.78;;;3.82;97.88
80777;BME280;70169;51.262;6.336;2023-11-18T05:10:56;101756.41;;;3.84;98.24
80777;BME280;70169;51.262;6.336;2023-11-18T05:13:13;101765.91;;;3.86;98.06
80777;BME280;70169;51.262;6.336;2023-11-18T05:15:31;101759.63;;;3.88;97.90
80777;BME280;70169;51.262;6.336;2023-11-18T05:17:47;101749.03;;;3.90;98.08
80777;BME280;70169;51.262;6.336;2023-11-18T05:20:03;101753.28;;;3.91;98.03
80777;BME280;70169;51.262;6.336;2023-11-18T05:22:19;101745.44;;;3.91;98.20
80777;BME280;70169;51.262;6.336;2023-11-18T05:24:35;101747.91;;;3.92;98.13
80777;BME280;70169;51.262;6.336;2023-11-18T05:26:51;101753.03;;;3.94;98.57
80777;BME280;70169;51.262;6.336;2023-11-18T05:29:07;101759.06;;;3.94;98.69
80777;BME280;70169;51.262;6.336;2023-11-18T05:31:23;101758.13;;;3.95;97.99
80777;BME280;70169;51.262;6.336;2023-11-18T05:33:38;101754.56;;;3.96;97.88
80777;BME280;70169;51.262;6.336;2023-11-18T05:35:54;101746.72;;;3.96;98.62
80777;BME280;70169;51.262;6.336;2023-11-18T05:38:09;101749.19;;;3.98;97.98
80777;BME280;70169;51.262;6.336;2023-11-18T05:40:27;101741.22;;;3.99;97.97
80777;BME280;70169;51.262;6.336;2023-11-18T05:42:44;101735.13;;;3.99;98.09
80777;BME280;70169;51.262;6.336;2023-11-18T05:45:01;101731.56;;;4.00;98.04
80777;BME280;70169;51.262;6.336;2023-11-18T05:47:16;101737.63;;;4.00;98.21
80777;BME280;70169;51.262;6.336;2023-11-18T05:49:34;101732.25;;;4.02;98.85
80777;BME280;70169;51.262;6.336;2023-11-18T05:51:50;101734.88;;;4.02;98.62
80777;BME280;70169;51.262;6.336;2023-11-18T05:54:07;101731.31;;;4.03;98.33
80777;BME280;70169;51.262;6.336;2023-11-18T05:56:22;101734.75;;;4.04;98.65
80777;BME280;70169;51.262;6.336;2023-11-18T05:58:38;101733.94;;;4.03;98.49
80777;BME280;70169;51.262;6.336;2023-11-18T06:00:58;101724.28;;;4.04;98.46
80777;BME280;70169;51.262;6.336;2023-11-18T06:03:14;101716.44;;;4.04;98.13
80777;BME280;70169;51.262;6.336;2023-11-18T06:05:30;101716.44;;;4.04;98.67
80777;BME280;70169;51.262;6.336;2023-11-18T06:07:49;101705.84;;;4.05;98.16
80777;BME280;70169;51.262;6.336;2023-11-18T06:10:06;101698.81;;;4.06;97.89
80777;BME280;70169;51.262;6.336;2023-11-18T06:12:22;101696.19;;;4.06;98.28
80777;BME280;70169;51.262;6.336;2023-11-18T06:14:37;101702.28;;;4.06;98.05
80777;BME280;70169;51.262;6.336;2023-11-18T06:16:53;101705.72;;;4.07;98.34
80777;BME280;70169;51.262;6.336;2023-11-18T06:19:08;101709.13;;;4.07;98.34
80777;BME280;70169;51.262;6.336;2023-11-18T06:21:26;101725.56;;;4.09;98.69
80777;BME280;70169;51.262;6.336;2023-11-18T06:23:46;101720.31;;;4.09;98.23
80777;BME280;70169;51.262;6.336;2023-11-18T06:26:02;101718.53;;;4.10;98.25
80777;BME280;70169;51.262;6.336;2023-11-18T06:28:19;101723.75;;;4.10;98.70
80777;BME280;70169;51.262;6.336;2023-11-18T06:30:35;101708.06;;;4.10;98.06
80777;BME280;70169;51.262;6.336;2023-11-18T06:32:51;101696.66;;;4.11;98.51
80777;BME280;70169;51.262;6.336;2023-11-18T06:35:07;101686.19;;;4.11;98.69
80777;BME280;70169;51.262;6.336;2023-11-18T06:37:23;101682.59;;;4.12;98.50
80777;BME280;70169;51.262;6.336;2023-11-18T06:39:41;101688.66;;;4.12;98.63
80777;BME280;70169;51.262;6.336;2023-11-18T06:41:59;101704.22;;;4.14;98.06
80777;BME280;70169;51.262;6.336;2023-11-18T06:44:15;101713.72;;;4.15;97.87
80777;BME280;70169;51.262;6.336;2023-11-18T06:46:33;101714.56;;;4.15;97.97
80777;BME280;70169;51.262;6.336;2023-11-18T06:48:49;101718.81;;;4.16;98.25
80777;BME280;70169;51.262;6.336;2023-11-18T06:51:05;101722.13;;;4.18;98.66
80777;BME280;70169;51.262;6.336;2023-11-18T06:53:23;101726.28;;;4.21;98.27
80777;BME280;70169;51.262;6.336;2023-11-18T06:55:38;101717.47;;;4.22;98.31
80777;BME280;70169;51.262;6.336;2023-11-18T06:57:53;101724.34;;;4.23;98.15
80777;BME280;70169;51.262;6.336;2023-11-18T07:00:11;101724.22;;;4.25;98.71
80777;BME280;70169;51.262;6.336;2023-11-18T07:02:29;101725.06;;;4.25;98.34
80777;BME280;70169;51.262;6.336;2023-11-18T07:04:44;101726.69;;;4.26;98.32
80777;BME280;70169;51.262;6.336;2023-11-18T07:07:00;101731.94;;;4.26;98.46
80777;BME280;70169;51.262;6.336;2023-11-18T07:09:16;101718.84;;;4.26;97.57
80777;BME280;70169;51.262;6.336;2023-11-18T07:11:33;101718.72;;;4.28;97.94
80777;BME280;70169;51.262;6.336;2023-11-18T07:13:48;101720.38;;;4.29;97.77
80777;BME280;70169;51.262;6.336;2023-11-18T07:16:11;101710.72;;;4.29;97.85
80777;BME280;70169;51.262;6.336;2023-11-18T07:18:27;101708.81;;;4.31;97.96
80777;BME280;70169;51.262;6.336;2023-11-18T07:20:45;101700.00;;;4.32;97.96
80777;BME280;70169;51.262;6.336;2023-11-18T07:23:01;101697.38;;;4.32;97.75
80777;BME280;70169;51.262;6.336;2023-11-18T07:25:16;101700.81;;;4.33;97.69
80777;BME280;70169;51.262;6.336;2023-11-18T07:27:36;101704.16;;;4.35;97.60
80777;BME280;70169;51.262;6.336;2023-11-18T07:29:51;101694.50;;;4.35;98.12
80777;BME280;70169;51.262;6.336;2023-11-18T07:32:08;101682.22;;;4.36;97.40
80777;BME280;70169;51.262;6.336;2023-11-18T07:34:25;101681.28;;;4.37;97.65
80777;BME280;70169;51.262;6.336;2023-11-18T07:36:41;101683.75;;;4.38;98.15
80777;BME280;70169;51.262;6.336;2023-11-18T07:38:56;101692.44;;;4.39;97.97
80777;BME280;70169;51.262;6.336;2023-11-18T07:41:13;101693.28;;;4.40;98.15
80777;BME280;70169;51.262;6.336;2023-11-18T07:43:44;101697.41;;;4.42;97.78
80777;BME280;70169;51.262;6.336;2023-11-18T07:45:59;101693.69;;;4.45;97.73
80777;BME280;70169;51.262;6.336;2023-11-18T07:48:16;101689.00;;;4.48;98.11
80777;BME280;70169;51.262;6.336;2023-11-18T07:50:40;101693.97;;;4.51;97.61
80777;BME280;70169;51.262;6.336;2023-11-18T07:52:56;101698.81;;;4.56;97.34
80777;BME280;70169;51.262;6.336;2023-11-18T07:55:12;101691.50;;;4.60;97.53
80777;BME280;70169;51.262;6.336;2023-11-18T07:57:28;101684.19;;;4.63;97.80
80777;BME280;70169;51.262;6.336;2023-11-18T07:59:44;101694.41;;;4.66;97.14
80777;BME280;70169;51.262;6.336;2023-11-18T08:01:59;101693.31;;;4.69;97.12
80777;BME280;70169;51.262;6.336;2023-11-18T08:04:18;101700.06;;;4.71;97.11
80777;BME280;70169;51.262;6.336;2023-11-18T08:06:35;101697.16;;;4.74;97.35
80777;BME280;70169;51.262;6.336;2023-11-18T08:08:52;101693.59;;;4.75;96.69
80777;BME280;70169;51.262;6.336;2023-11-18T08:11:12;101691.50;;;4.79;96.67
80777;BME280;70169;51.262;6.336;2023-11-18T08:13:27;101705.44;;;4.80;96.74
80777;BME280;70169;51.262;6.336;2023-11-18T08:15:43;101705.16;;;4.83;96.71
80777;BME280;70169;51.262;6.336;2023-11-18T08:18:02;101701.59;;;4.84;96.51
80777;BME280;70169;51.262;6.336;2023-11-18T08:20:18;101703.13;;;4.86;96.47
80777;BME280;70169;51.262;6.336;2023-11-18T08:22:36;101696.88;;;4.87;96.09
80777;BME280;70169;51.262;6.336;2023-11-18T08:24:51;101690.81;;;4.87;96.37
80777;BME280;70169;51.262;6.336;2023-11-18T08:27:07;101703.66;;;4.90;96.57
80777;BME280;70169;51.262;6.336;2023-11-18T08:29:22;101711.38;;;4.91;96.47
80777;BME280;70169;51.262;6.336;2023-11-18T08:31:39;101703.38;;;4.93;96.53
80777;BME280;70169;51.262;6.336;2023-11-18T08:33:55;101698.81;;;4.95;96.38
80777;BME280;70169;51.262;6.336;2023-11-18T08:36:10;101697.72;;;4.98;96.27
80777;BME280;70169;51.262;6.336;2023-11-18T08:38:27;101689.88;;;4.98;96.18
80777;BME280;70169;51.262;6.336;2023-11-18T08:40:43;101687.25;;;4.98;96.10
80777;BME280;70169;51.262;6.336;2023-11-18T08:43:00;101686.41;;;4.97;96.16
80777;BME280;70169;51.262;6.336;2023-11-18T08:45:17;101691.66;;;4.97;96.20
80777;BME280;70169;51.262;6.336;2023-11-18T08:47:33;101685.44;;;4.98;96.46
80777;BME280;70169;51.262;6.336;2023-11-18T08:49:49;101695.78;;;5.00;96.00
80777;BME280;70169;51.262;6.336;2023-11-18T08:52:05;101690.41;;;5.01;96.35
80777;BME280;70169;51.262;6.336;2023-11-18T08:54:25;101688.63;;;5.02;96.38
80777;BME280;70169;51.262;6.336;2023-11-18T08:56:40;101676.19;;;5.04;96.31
80777;BME280;70169;51.262;6.336;2023-11-18T08:58:57;101674.41;;;5.04;96.05
80777;BME280;70169;51.262;6.336;2023-11-18T09:01:14;101671.66;;;5.06;95.83
80777;BME280;70169;51.262;6.336;2023-11-18T09:03:30;101671.66;;;5.06;96.03
80777;BME280;70169;51.262;6.336;2023-11-18T09:06:01;101668.91;;;5.07;96.20
80777;BME280;70169;51.262;6.336;2023-11-18T09:08:20;101650.13;;;5.12;96.30
80777;BME280;70169;51.262;6.336;2023-11-18T09:10:37;101657.00;;;5.13;95.86
80777;BME280;70169;51.262;6.336;2023-11-18T09:12:53;101644.59;;;5.15;95.88
80777;BME280;70169;51.262;6.336;2023-11-18T09:15:09;101640.88;;;5.18;96.00
80777;BME280;70169;51.262;6.336;2023-11-18T09:17:25;101638.78;;;5.21;96.15
80777;BME280;70169;51.262;6.336;2023-11-18T09:19:42;101638.50;;;5.24;96.15
80777;BME280;70169;51.262;6.336;2023-11-18T09:22:00;101636.59;;;5.26;95.89
80777;BME280;70169;51.262;6.336;2023-11-18T09:24:16;101635.31;;;5.30;96.09
80777;BME280;70169;51.262;6.336;2023-11-18T09:26:34;101636.84;;;5.33;95.60
80777;BME280;70169;51.262;6.336;2023-11-18T09:28:50;101635.72;;;5.36;95.59
80777;BME280;70169;51.262;6.336;2023-11-18T09:31:07;101638.06;;;5.39;95.64
80777;BME280;70169;51.262;6.336;2023-11-18T09:33:32;101643.16;;;5.40;95.46
80777;BME280;70169;51.262;6.336;2023-11-18T09:35:52;101637.63;;;5.43;95.69
80777;BME280;70169;51.262;6.336;2023-11-18T09:38:11;101633.06;;;5.45;95.41
80777;BME280;70169;51.262;6.336;2023-11-18T09:40:29;101642.31;;;5.50;95.47
80777;BME280;70169;51.262;6.336;2023-11-18T09:42:47;101636.78;;;5.53;95.20
80777;BME280;70169;51.262;6.336;2023-11-18T09:45:05;101626.16;;;5.54;95.42
80777;BME280;70169;51.262;6.336;2023-11-18T09:47:28;101625.00;;;5.57;95.22
80777;BME280;70169;51.262;6.336;2023-11-18T09:49:45;101622.25;;;5.58;95.22
80777;BME280;70169;51.262;6.336;2023-11-18T09:52:03;101614.94;;;5.62;95.34
80777;BME280;70169;51.262;6.336;2023-11-18T09:54:28;101619.03;;;5.64;95.51
80777;BME280;70169;51.262;6.336;2023-11-18T09:57:02;101625.66;;;5.69;94.97
80777;BME280;70169;51.262;6.336;2023-11-18T09:59:31;101617.66;;;5.70;95.32
80777;BME280;70169;51.262;6.336;2023-11-18T10:01:51;101621.91;;;5.71;95.26
80777;BME280;70169;51.262;6.336;2023-11-18T10:04:08;101611.41;;;5.71;95.12
80777;BME280;70169;51.262;6.336;2023-11-18T10:06:26;101599.28;;;5.70;94.83
80777;BME280;70169;51.262;6.336;2023-11-18T10:08:43;101603.41;;;5.73;94.93
80777;BME280;70169;51.262;6.336;2023-11-18T10:11:01;101592.91;;;5.73;95.05
80777;BME280;70169;51.262;6.336;2023-11-18T10:13:24;101584.91;;;5.74;95.05
80777;BME280;70169;51.262;6.336;2023-11-18T10:15:40;101579.66;;;5.74;95.09
80777;BME280;70169;51.262;6.336;2023-11-18T10:17:55;101564.75;;;5.75;94.81
80777;BME280;70169;51.262;6.336;2023-11-18T10:20:46;101558.66;;;5.74;95.03
80777;BME280;70169;51.262;6.336;2023-11-18T10:23:07;101562.94;;;5.75;94.73
80777;BME280;70169;51.262;6.336;2023-11-18T10:25:25;101566.41;;;5.76;94.92
80777;BME280;70169;51.262;6.336;2023-11-18T10:27:45;101556.72;;;5.76;95.07
80777;BME280;70169;51.262;6.336;2023-11-18T10:30:04;101558.38;;;5.77;95.07
80777;BME280;70169;51.262;6.336;2023-11-18T10:32:21;101554.78;;;5.78;95.44
80777;BME280;70169;51.262;6.336;2023-11-18T10:34:37;101545.94;;;5.79;95.72
80777;BME280;70169;51.262;6.336;2023-11-18T10:37:00;101526.47;;;5.82;95.61
80777;BME280;70169;51.262;6.336;2023-11-18T10:39:17;101522.72;;;5.84;95.73
80777;BME280;70169;51.262;6.336;2023-11-18T10:41:39;101541.31;;;5.91;95.03
80777;BME280;70169;51.262;6.336;2023-11-18T10:44:07;101549.59;;;5.96;95.56
80777;BME280;70169;51.262;6.336;2023-11-18T10:46:24;101550.13;;;6.00;95.21
80777;BME280;70169;51.262;6.336;2023-11-18T10:48:44;101549.66;;;6.05;95.43
80777;BME280;70169;51.262;6.336;2023-11-18T10:50:59;101546.09;;;6.06;94.89
80777;BME280;70169;51.262;6.336;2023-11-18T10:53:19;101534.44;;;6.08;95.17
80777;BME280;70169;51.262;6.336;2023-11-18T10:55:38;101527.41;;;6.09;95.07
80777;BME280;70169;51.262;6.336;2023-11-18T10:57:57;101511.66;;;6.09;95.12
80777;BME280;70169;51.262;6.336;2023-11-18T11:00:13;101517.88;;;6.08;95.83
80777;BME280;70169;51.262;6.336;2023-11-18T11:02:32;101509.19;;;6.07;95.21
80777;BME280;70169;51.262;6.336;2023-11-18T11:04:56;101508.19;;;6.08;95.37
80777;BME280;70169;51.262;6.336;2023-11-18T11:07:14;101506.41;;;6.09;95.76
80777;BME280;70169;51.262;6.336;2023-11-18T11:09:30;101502.78;;;6.10;96.30
80777;BME280;70169;51.262;6.336;2023-11-18T11:11:58;101500.03;;;6.11;96.13
80777;BME280;70169;51.262;6.336;2023-11-18T11:14:33;101496.28;;;6.14;96.21
80777;BME280;70169;51.262;6.336;2023-11-18T11:16:54;101500.25;;;6.18;96.39
80777;BME280;70169;51.262;6.336;2023-11-18T11:21:44;101510.13;;;6.24;96.62
80777;BME280;70169;51.262;6.336;2023-11-18T11:24:11;101494.75;;;6.29;96.93
80777;BME280;70169;51.262;6.336;2023-11-18T11:26:51;101482.00;;;6.34;96.45
80777;BME280;70169;51.262;6.336;2023-11-18T11:29:45;101483.34;;;6.38;97.09
80777;BME280;70169;51.262;6.336;2023-11-18T11:32:15;101465.47;;;6.42;97.12
80777;BME280;70169;51.262;6.336;2023-11-18T11:34:35;101460.91;;;6.44;96.70
80777;BME280;70169;51.262;6.336;2023-11-18T11:36:53;101444.84;;;6.47;96.54
80777;BME280;70169;51.262;6.336;2023-11-18T11:39:10;101455.34;;;6.47;96.59
80777;BME280;70169;51.262;6.336;2023-11-18T11:41:30;101449.94;;;6.49;95.99
80777;BME280;70169;51.262;6.336;2023-11-18T11:43:50;101449.94;;;6.49;96.87
80777;BME280;70169;51.262;6.336;2023-11-18T11:46:06;101453.22;;;6.51;96.61
80777;BME280;70169;51.262;6.336;2023-11-18T11:48:26;101465.22;;;6.53;96.73
80777;BME280;70169;51.262;6.336;2023-11-18T11:53:13;101465.75;;;6.57;96.60
80777;BME280;70169;51.262;6.336;2023-11-18T11:55:53;101457.72;;;6.59;96.30
80777;BME280;70169;51.262;6.336;2023-11-18T11:58:26;101450.16;;;6.55;96.70
80777;BME280;70169;51.262;6.336;2023-11-18T12:00:41;101429.94;;;6.56;96.90
80777;BME280;70169;51.262;6.336;2023-11-18T12:03:00;101422.22;;;6.54;97.23
80777;BME280;70169;51.262;6.336;2023-11-18T12:05:19;101417.78;;;6.55;96.97
80777;BME280;70169;51.262;6.336;2023-11-18T12:07:34;101400.25;;;6.55;96.66
80777;BME280;70169;51.262;6.336;2023-11-18T12:10:01;101391.38;;;6.56;97.22
80777;BME280;70169;51.262;6.336;2023-11-18T12:12:22;101382.50;;;6.57;96.63
80777;BME280;70169;51.262;6.336;2023-11-18T12:14:56;101386.78;;;6.59;96.42